Time;durP1;ratioP1;P1;durP2;ratioP2;P2;SDS_P1;SDS_P2;PMS_P1;PMS_P2;Temp;Humidity;BMP_temperature;BMP_pressure;BME280_temperature;BME280_humidity;BME280_pressure;Samples;Min_cycle;Max_cycle;Signal;HPM_P1;HPM_P2
2022/12/09 00:00:18;;;;;;;8.98;4.20;;;-0.10;99.90;;;;;;4958787;28;20031;-78
2022/12/09 00:02:44;;;;;;;10.57;4.95;;;-0.10;99.90;;;;;;4956823;28;20031;-78
2022/12/09 00:05:10;;;;;;;11.25;4.70;;;-0.10;99.90;;;;;;4957736;28;20043;-78
2022/12/09 00:07:47;;;;;;;9.55;4.60;;;-0.10;99.90;;;;;;4961802;28;20023;-78
2022/12/09 00:10:13;;;;;;;10.50;5.03;;;-0.10;99.90;;;;;;4954956;28;20051;-77
2022/12/09 00:12:52;;;;;;;11.38;5.15;;;-0.10;99.90;;;;;;4949683;28;20148;-78
2022/12/09 00:15:22;;;;;;;9.93;4.53;;;-0.10;99.90;;;;;;4956355;28;20473;-77
2022/12/09 00:17:47;;;;;;;9.55;4.78;;;-0.20;99.90;;;;;;4956415;28;20050;-80
2022/12/09 00:20:16;;;;;;;9.05;4.32;;;-0.20;99.90;;;;;;4952590;28;20027;-78
2022/12/09 00:22:42;;;;;;;9.60;4.70;;;-0.20;99.90;;;;;;4952923;28;20027;-79
2022/12/09 00:25:22;;;;;;;9.82;4.50;;;-0.20;99.90;;;;;;4961876;28;20030;-79
2022/12/09 00:27:51;;;;;;;14.60;6.47;;;-0.10;99.90;;;;;;4957643;28;20424;-79
2022/12/09 00:30:20;;;;;;;12.25;5.35;;;-0.10;99.90;;;;;;4957040;28;20027;-79
2022/12/09 00:32:45;;;;;;;13.05;6.10;;;-0.20;99.90;;;;;;4976044;28;20031;-78
2022/12/09 00:35:11;;;;;;;13.23;6.40;;;-0.20;99.90;;;;;;4974712;28;20067;-80
2022/12/09 00:37:36;;;;;;;8.05;4.80;;;-0.20;99.90;;;;;;4954207;28;20037;-78
2022/12/09 00:40:05;;;;;;;11.93;6.03;;;-0.20;99.90;;;;;;4953981;28;20116;-78
2022/12/09 00:42:31;;;;;;;13.25;5.82;;;-0.20;99.90;;;;;;4957581;28;20083;-79
2022/12/09 00:45:03;;;;;;;10.68;6.10;;;-0.20;99.90;;;;;;4958413;28;20062;-79
2022/12/09 00:47:43;;;;;;;10.90;5.78;;;-0.20;99.90;;;;;;4952871;28;20424;-79
2022/12/09 00:50:09;;;;;;;11.32;5.55;;;-0.20;99.90;;;;;;4958196;28;20027;-79
2022/12/09 00:52:41;;;;;;;8.85;4.90;;;-0.20;99.90;;;;;;4953793;28;20051;-78
2022/12/09 00:55:10;;;;;;;10.52;5.07;;;-0.20;99.90;;;;;;4954393;28;20516;-79
2022/12/09 00:57:39;;;;;;;10.50;4.93;;;-0.30;99.90;;;;;;4971789;28;20027;-79
2022/12/09 01:00:08;;;;;;;8.70;4.53;;;-0.20;99.90;;;;;;4954527;28;20035;-79
2022/12/09 01:02:35;;;;;;;13.23;6.18;;;-0.30;99.90;;;;;;4954828;28;20119;-79
2022/12/09 01:05:07;;;;;;;10.85;5.53;;;-0.30;99.90;;;;;;4957983;28;20090;-79
2022/12/09 01:07:32;;;;;;;11.40;6.00;;;-0.30;99.90;;;;;;4958349;28;20535;-79
2022/12/09 01:09:58;;;;;;;12.00;6.18;;;-0.30;99.90;;;;;;4956090;28;20024;-79
2022/12/09 01:12:27;;;;;;;14.90;7.10;;;-0.30;99.90;;;;;;4955314;28;20168;-78
2022/12/09 01:14:55;;;;;;;14.75;7.25;;;-0.40;99.90;;;;;;4952112;28;20027;-79
2022/12/09 01:17:21;;;;;;;20.70;8.07;;;-0.40;99.90;;;;;;4951953;28;20046;-79
2022/12/09 01:19:46;;;;;;;17.15;8.10;;;-0.40;99.90;;;;;;4956201;28;20121;-79
2022/12/09 01:22:15;;;;;;;17.85;8.73;;;-0.50;99.90;;;;;;4959745;28;20102;-79
2022/12/09 01:24:50;;;;;;;17.83;8.27;;;-0.50;99.90;;;;;;4951419;28;20027;-78
2022/12/09 01:27:18;;;;;;;16.67;7.53;;;-0.50;99.90;;;;;;4954958;28;20031;-79
2022/12/09 01:29:44;;;;;;;16.60;8.00;;;-0.50;99.90;;;;;;4953527;28;20089;-78
2022/12/09 01:32:09;;;;;;;15.93;7.50;;;-0.50;99.90;;;;;;4958705;28;20114;-78
2022/12/09 01:34:41;;;;;;;16.05;7.32;;;-0.60;99.90;;;;;;4952729;29;20030;-79
2022/12/09 01:37:07;;;;;;;19.67;8.95;;;-0.60;99.90;;;;;;4951438;28;20403;-78
2022/12/09 01:39:38;;;;;;;19.85;9.07;;;-0.60;99.90;;;;;;4952594;28;20031;-78
2022/12/09 01:42:04;;;;;;;15.45;8.02;;;-0.70;99.90;;;;;;4956779;28;20031;-79
2022/12/09 01:44:33;;;;;;;14.52;7.50;;;-0.70;99.90;;;;;;4955243;28;20039;-78
2022/12/09 01:47:20;;;;;;;20.42;8.60;;;-0.80;99.90;;;;;;4955852;28;20493;-78
2022/12/09 01:49:49;;;;;;;15.57;8.65;;;-0.80;99.90;;;;;;4956380;28;20030;-79
2022/12/09 01:52:21;;;;;;;16.80;8.00;;;-0.80;99.90;;;;;;4957288;28;20024;-78
2022/12/09 01:54:49;;;;;;;15.90;8.40;;;-0.80;99.90;;;;;;4967912;28;20086;-79
2022/12/09 01:57:15;;;;;;;19.88;9.32;;;-0.80;99.90;;;;;;4959310;28;20125;-79
2022/12/09 01:59:42;;;;;;;19.83;9.70;;;-0.80;99.90;;;;;;4958667;28;20027;-79
2022/12/09 02:02:16;;;;;;;22.05;10.20;;;-0.90;99.90;;;;;;4954366;28;20038;-77
2022/12/09 02:04:46;;;;;;;20.63;9.63;;;-0.90;99.90;;;;;;4959339;28;20039;-78
2022/12/09 02:07:17;;;;;;;19.10;9.65;;;-0.90;99.90;;;;;;4961696;28;20038;-78
2022/12/09 02:09:43;;;;;;;17.00;9.60;;;-0.90;99.90;;;;;;4960723;28;20079;-79
2022/12/09 02:12:25;;;;;;;21.58;10.63;;;-0.90;99.90;;;;;;4961152;28;20057;-78
2022/12/09 02:15:16;;;;;;;20.55;9.43;;;-1.00;99.90;;;;;;4958736;28;20026;-78
2022/12/09 02:17:56;;;;;;;17.60;9.57;;;-1.00;99.90;;;;;;4956481;28;20063;-78
2022/12/09 02:20:24;;;;;;;18.80;9.25;;;-1.00;99.90;;;;;;4958978;28;20027;-79
2022/12/09 02:23:01;;;;;;;18.98;9.88;;;-1.00;99.90;;;;;;4963087;28;20128;-79
2022/12/09 02:26:17;;;;;;;21.08;9.20;;;-1.10;99.90;;;;;;4958234;28;20031;-79
2022/12/09 02:28:43;;;;;;;19.70;10.00;;;-1.10;99.90;;;;;;4947074;28;20047;-78
2022/12/09 02:31:27;;;;;;;19.63;9.30;;;-1.10;99.90;;;;;;4967742;28;20032;-77
2022/12/09 02:34:08;;;;;;;18.02;9.10;;;-1.10;99.90;;;;;;4969733;28;20035;-78
2022/12/09 02:36:45;;;;;;;20.38;10.20;;;-1.10;99.90;;;;;;4957282;28;20027;-78
2022/12/09 02:39:11;;;;;;;20.77;11.35;;;-1.10;99.90;;;;;;4970675;28;20088;-78
2022/12/09 02:41:43;;;;;;;22.73;9.63;;;-1.10;99.90;;;;;;4956169;28;20106;-77
2022/12/09 02:44:18;;;;;;;21.77;10.15;;;-1.20;99.90;;;;;;4954610;28;20121;-78
2022/12/09 02:46:48;;;;;;;15.98;8.27;;;-1.20;99.90;;;;;;4956256;28;20464;-78
2022/12/09 02:49:14;;;;;;;15.25;7.28;;;-1.20;99.90;;;;;;4954117;28;20030;-78
2022/12/09 02:51:42;;;;;;;16.73;7.63;;;-1.20;99.90;;;;;;4969255;28;20027;-78
2022/12/09 02:54:13;;;;;;;19.80;9.35;;;-1.20;99.90;;;;;;4969550;28;20038;-78
2022/12/09 02:56:50;;;;;;;18.58;8.77;;;-1.20;99.90;;;;;;4953526;28;20042;-77
2022/12/09 02:59:15;;;;;;;25.73;10.50;;;-1.20;99.90;;;;;;4955714;28;20447;-77
2022/12/09 03:01:53;;;;;;;22.77;11.07;;;-1.20;99.90;;;;;;4952140;28;20031;-77
2022/12/09 03:04:25;;;;;;;19.13;9.13;;;-1.20;99.90;;;;;;4957960;28;20058;-77
2022/12/09 03:06:52;;;;;;;18.25;9.27;;;-1.20;99.90;;;;;;4953009;28;20028;-77
2022/12/09 03:09:46;;;;;;;20.10;8.82;;;-1.20;99.90;;;;;;4956175;28;20121;-78
2022/12/09 03:12:16;;;;;;;20.52;9.55;;;-1.20;99.90;;;;;;4951264;28;20027;-77
2022/12/09 03:14:47;;;;;;;17.23;9.57;;;-1.20;99.90;;;;;;4950613;28;20053;-77
2022/12/09 03:17:22;;;;;;;17.17;9.15;;;-1.20;99.90;;;;;;4952255;28;20027;-78
2022/12/09 03:20:03;;;;;;;17.45;9.70;;;-1.20;99.90;;;;;;4950489;28;20038;-78
2022/12/09 03:22:33;;;;;;;16.02;9.35;;;-1.20;99.90;;;;;;4957295;28;20039;-77
2022/12/09 03:25:23;;;;;;;15.77;8.52;;;-1.10;99.90;;;;;;4955402;28;20031;-78
2022/12/09 03:28:05;;;;;;;17.85;9.07;;;-1.10;99.90;;;;;;4953053;28;20055;-79
2022/12/09 03:30:36;;;;;;;18.83;8.82;;;-1.10;99.90;;;;;;4954948;28;20349;-79
2022/12/09 03:33:03;;;;;;;15.40;8.65;;;-1.10;99.90;;;;;;4974412;28;20034;-79
2022/12/09 03:35:35;;;;;;;15.93;9.63;;;-1.20;99.90;;;;;;4955429;28;20106;-79
2022/12/09 03:38:05;;;;;;;15.85;7.72;;;-1.10;99.90;;;;;;4954613;28;20082;-78
2022/12/09 03:40:35;;;;;;;17.33;8.73;;;-1.10;99.90;;;;;;4956674;28;20030;-78
2022/12/09 03:43:12;;;;;;;16.48;8.30;;;-1.10;99.90;;;;;;4956631;28;20086;-78
2022/12/09 03:45:47;;;;;;;15.82;8.82;;;-1.10;99.90;;;;;;4954469;28;20106;-78
2022/12/09 03:48:13;;;;;;;17.33;8.43;;;-1.20;99.90;;;;;;4952845;28;20023;-78
2022/12/09 03:50:59;;;;;;;15.52;8.43;;;-1.10;99.90;;;;;;4953555;28;20084;-78
2022/12/09 03:53:48;;;;;;;18.27;9.25;;;-1.20;99.90;;;;;;4951969;28;20131;-78
2022/12/09 03:56:35;;;;;;;19.58;9.75;;;-1.10;99.90;;;;;;4950086;28;20039;-79
2022/12/09 03:59:03;;;;;;;15.52;9.15;;;-1.10;99.90;;;;;;4959526;28;20033;-79
2022/12/09 04:01:45;;;;;;;16.02;8.95;;;-1.10;99.90;;;;;;4962606;28;20027;-78
2022/12/09 04:04:15;;;;;;;15.63;8.15;;;-1.10;99.90;;;;;;4957394;28;20039;-78
2022/12/09 04:06:41;;;;;;;17.52;7.82;;;-1.10;99.90;;;;;;4951941;28;20023;-78
2022/12/09 04:09:10;;;;;;;16.73;8.50;;;-1.10;99.90;;;;;;4954347;28;20122;-78
2022/12/09 04:11:48;;;;;;;15.82;8.52;;;-1.10;99.90;;;;;;4959623;28;20400;-78
2022/12/09 04:14:13;;;;;;;14.48;8.10;;;-1.10;99.90;;;;;;4950739;28;20031;-77
2022/12/09 04:16:42;;;;;;;17.20;8.48;;;-1.10;99.90;;;;;;4952998;28;20126;-77
2022/12/09 04:19:08;;;;;;;16.35;8.90;;;-1.10;99.90;;;;;;4964625;28;20031;-78
2022/12/09 04:21:40;;;;;;;14.98;8.05;;;-1.10;99.90;;;;;;4956274;28;20397;-78
2022/12/09 04:24:09;;;;;;;17.83;8.93;;;-1.10;99.90;;;;;;4948119;28;20035;-77
2022/12/09 04:26:38;;;;;;;19.42;8.93;;;-1.10;99.90;;;;;;4948837;28;20036;-78
2022/12/09 04:29:08;;;;;;;15.95;9.35;;;-1.10;99.90;;;;;;4953676;28;20024;-77
2022/12/09 04:31:33;;;;;;;16.58;8.95;;;-1.10;99.90;;;;;;4961388;28;20035;-77
2022/12/09 04:33:59;;;;;;;14.85;8.55;;;-1.10;99.90;;;;;;4953907;28;20039;-78
2022/12/09 04:36:28;;;;;;;15.10;8.90;;;-1.10;99.90;;;;;;4950539;28;20043;-77
2022/12/09 04:38:53;;;;;;;15.02;8.13;;;-1.10;99.90;;;;;;4953337;28;20051;-78
2022/12/09 04:41:19;;;;;;;17.58;8.40;;;-1.10;99.90;;;;;;4949726;28;20039;-77
2022/12/09 04:43:45;;;;;;;14.93;8.73;;;-1.20;99.90;;;;;;4953459;28;20035;-77
2022/12/09 04:46:15;;;;;;;16.90;8.30;;;-1.20;99.90;;;;;;4953847;28;20110;-78
2022/12/09 04:48:44;;;;;;;17.42;9.07;;;-1.20;99.90;;;;;;4946693;28;20087;-78
2022/12/09 04:51:16;;;;;;;16.02;8.38;;;-1.20;99.90;;;;;;4953973;28;20086;-78
2022/12/09 04:53:45;;;;;;;19.02;9.63;;;-1.20;99.90;;;;;;4950754;28;20295;-77
2022/12/09 04:56:19;;;;;;;18.40;9.23;;;-1.20;99.90;;;;;;4947713;28;20210;-78
2022/12/09 04:58:45;;;;;;;16.13;8.65;;;-1.20;99.90;;;;;;4945646;28;20023;-78
2022/12/09 05:01:16;;;;;;;17.70;9.65;;;-1.20;99.90;;;;;;4950750;28;20469;-77
2022/12/09 05:03:49;;;;;;;19.15;9.70;;;-1.10;99.90;;;;;;4998565;23;20042;-76
2022/12/09 05:06:15;;;;;;;17.27;9.80;;;-1.10;99.90;;;;;;5008359;28;20076;-75
2022/12/09 05:08:44;;;;;;;16.80;9.35;;;-1.10;99.90;;;;;;5006729;28;20505;-75
2022/12/09 05:11:12;;;;;;;19.08;9.52;;;-1.10;99.90;;;;;;5007416;28;20026;-75
2022/12/09 05:13:44;;;;;;;17.38;9.27;;;-1.00;99.90;;;;;;5009129;28;20030;-74
2022/12/09 05:16:12;;;;;;;15.93;9.18;;;-1.00;99.90;;;;;;5009604;28;20026;-74
2022/12/09 05:18:50;;;;;;;18.60;9.55;;;-1.00;99.90;;;;;;5008290;28;20060;-75
2022/12/09 05:21:20;;;;;;;16.48;8.82;;;-1.00;99.90;;;;;;5016971;28;20033;-75
2022/12/09 05:23:46;;;;;;;22.60;10.13;;;-1.00;99.90;;;;;;5012307;28;20422;-75
2022/12/09 05:26:15;;;;;;;17.65;8.77;;;-1.00;99.90;;;;;;5011507;28;20034;-75
2022/12/09 05:28:58;;;;;;;20.17;8.88;;;-1.00;99.90;;;;;;5010612;28;20068;-75
2022/12/09 05:31:24;;;;;;;17.10;9.45;;;-1.00;99.90;;;;;;5011887;28;20030;-77
2022/12/09 05:33:50;;;;;;;16.40;9.93;;;-1.10;99.90;;;;;;5011755;28;20117;-76
2022/12/09 05:36:23;;;;;;;16.63;9.27;;;-1.10;99.90;;;;;;5002913;28;20400;-76
2022/12/09 05:38:49;;;;;;;14.68;8.35;;;-1.10;99.90;;;;;;5007291;28;20049;-76
2022/12/09 05:41:15;;;;;;;16.27;9.48;;;-1.10;99.90;;;;;;5005888;28;20483;-67
2022/12/09 05:43:44;;;;;;;16.13;9.63;;;-1.00;99.90;;;;;;5005861;28;20083;-69
2022/12/09 05:46:16;;;;;;;20.95;9.35;;;-1.00;99.90;;;;;;5004685;28;20113;-68
2022/12/09 05:48:45;;;;;;;18.65;9.63;;;-0.90;99.90;;;;;;5006917;28;20482;-68
2022/12/09 05:51:16;;;;;;;17.30;9.13;;;-0.90;99.90;;;;;;5006895;28;20059;-68
2022/12/09 05:53:47;;;;;;;19.25;9.57;;;-0.80;99.90;;;;;;5005652;28;20508;-68
2022/12/09 05:56:17;;;;;;;20.95;9.65;;;-0.80;99.90;;;;;;5012635;28;20034;-74
2022/12/09 05:58:46;;;;;;;20.48;9.38;;;-0.70;99.90;;;;;;5005326;28;20026;-75
2022/12/09 06:01:15;;;;;;;20.73;11.02;;;-0.60;99.90;;;;;;5004092;28;20616;-75
2022/12/09 06:03:41;;;;;;;18.02;8.85;;;-0.60;99.90;;;;;;5004932;28;20053;-75
2022/12/09 06:06:15;;;;;;;16.63;8.77;;;-0.50;99.90;;;;;;5006978;28;20041;-75
2022/12/09 06:08:44;;;;;;;22.20;10.30;;;-0.50;99.90;;;;;;5002399;28;20022;-75
2022/12/09 06:11:20;;;;;;;17.58;9.98;;;-0.50;99.90;;;;;;5002966;28;20084;-75
2022/12/09 06:13:47;;;;;;;19.63;9.13;;;-0.50;99.90;;;;;;5008338;28;20030;-75
2022/12/09 06:16:14;;;;;;;14.85;8.00;;;-0.50;99.90;;;;;;5008340;28;20036;-75
2022/12/09 06:18:39;;;;;;;16.42;9.23;;;-0.50;99.90;;;;;;5004283;28;20117;-75
2022/12/09 06:21:17;;;;;;;18.00;9.32;;;-0.40;99.90;;;;;;5004532;28;20122;-75
2022/12/09 06:23:43;;;;;;;17.70;9.35;;;-0.50;99.90;;;;;;5005172;28;20033;-75
2022/12/09 06:26:28;;;;;;;16.23;8.80;;;-0.50;99.90;;;;;;5011263;28;20026;-76
2022/12/09 06:28:55;;;;;;;22.13;10.40;;;-0.50;99.90;;;;;;5006359;28;20117;-75
2022/12/09 06:31:21;;;;;;;19.58;9.80;;;-0.40;99.90;;;;;;5007736;28;20100;-74
2022/12/09 06:33:56;;;;;;;19.67;9.93;;;-0.40;99.90;;;;;;5002654;28;20038;-73
2022/12/09 06:36:22;;;;;;;19.83;8.68;;;-0.40;99.90;;;;;;5007582;28;20407;-74
2022/12/09 06:39:03;;;;;;;20.35;9.25;;;-0.30;99.90;;;;;;5007677;28;20022;-75
2022/12/09 06:41:29;;;;;;;19.92;9.40;;;-0.30;99.90;;;;;;5006621;28;20034;-75
2022/12/09 06:43:57;;;;;;;16.73;8.40;;;-0.30;99.90;;;;;;5007602;28;20033;-75
2022/12/09 06:46:26;;;;;;;17.90;9.02;;;-0.30;99.90;;;;;;5010509;28;20018;-75
2022/12/09 06:49:17;;;;;;;17.92;9.18;;;-0.40;99.90;;;;;;5005213;28;20414;-75
2022/12/09 06:51:43;;;;;;;28.80;11.75;;;-0.30;99.90;;;;;;5008495;28;20493;-75
2022/12/09 06:54:08;;;;;;;36.50;15.07;;;-0.40;99.90;;;;;;5009873;28;20125;-76
2022/12/09 06:56:40;;;;;;;30.25;11.57;;;-0.30;99.90;;;;;;5010183;28;20026;-76
2022/12/09 06:59:10;;;;;;;35.58;11.10;;;-0.40;99.90;;;;;;5008897;28;20033;-79
2022/12/09 07:01:39;;;;;;;20.35;10.07;;;-0.40;99.90;;;;;;5013302;28;20112;-78
2022/12/09 07:04:13;;;;;;;25.75;10.40;;;-0.30;99.90;;;;;;5025700;28;20030;-76
2022/12/09 07:06:48;;;;;;;22.42;9.93;;;-0.30;99.90;;;;;;5011243;28;20076;-76
2022/12/09 07:09:18;;;;;;;21.33;9.75;;;-0.40;99.90;;;;;;5014858;28;20694;-78
2022/12/09 07:11:45;;;;;;;20.25;10.07;;;-0.40;99.90;;;;;;5006175;28;20022;-77
2022/12/09 07:14:16;;;;;;;19.80;9.65;;;-0.30;99.90;;;;;;5015104;28;20036;-76
2022/12/09 07:16:42;;;;;;;20.83;8.80;;;-0.30;99.90;;;;;;5008494;28;20030;-77
2022/12/09 07:19:19;;;;;;;19.10;9.23;;;-0.30;99.90;;;;;;5013702;28;20093;-76
2022/12/09 07:21:45;;;;;;;16.15;8.02;;;-0.30;99.90;;;;;;5012947;28;20029;-77
2022/12/09 07:24:18;;;;;;;19.17;9.25;;;-0.30;99.90;;;;;;5011283;28;20084;-77
2022/12/09 07:26:44;;;;;;;18.95;8.75;;;-0.30;99.90;;;;;;4996123;28;20495;-77
2022/12/09 07:29:09;;;;;;;16.27;8.80;;;-0.30;99.90;;;;;;4996044;28;20054;-77
2022/12/09 07:31:38;;;;;;;21.20;10.40;;;-0.30;99.90;;;;;;5006646;28;20032;-77
2022/12/09 07:34:12;;;;;;;17.25;10.23;;;-0.30;99.90;;;;;;5014851;28;20080;-76
2022/12/09 07:36:38;;;;;;;18.77;9.77;;;-0.30;99.90;;;;;;5012759;28;20026;-76
2022/12/09 07:39:06;;;;;;;21.40;9.85;;;-0.30;99.90;;;;;;5014389;28;20026;-75
2022/12/09 07:41:32;;;;;;;18.77;10.20;;;-0.30;99.90;;;;;;5014589;28;20570;-75
2022/12/09 07:44:07;;;;;;;21.42;10.38;;;-0.30;99.90;;;;;;5013517;28;20046;-75
2022/12/09 07:46:33;;;;;;;31.20;10.32;;;-0.30;99.90;;;;;;5014100;28;20026;-75
2022/12/09 07:49:03;;;;;;;23.45;10.93;;;-0.30;99.90;;;;;;5013853;28;20021;-75
2022/12/09 07:51:29;;;;;;;18.25;10.23;;;-0.20;99.90;;;;;;5010097;28;20030;-75
2022/12/09 07:53:55;;;;;;;19.50;10.10;;;-0.20;99.90;;;;;;5008390;28;20129;-75
2022/12/09 07:56:21;;;;;;;19.48;9.88;;;-0.20;99.90;;;;;;5013365;28;20112;-77
2022/12/09 07:58:52;;;;;;;24.00;12.23;;;-0.10;99.90;;;;;;5015427;28;20059;-75
2022/12/09 08:01:21;;;;;;;19.38;10.18;;;-0.10;99.90;;;;;;5014645;28;20124;-76
2022/12/09 08:03:47;;;;;;;22.58;11.32;;;0.00;99.90;;;;;;5013612;28;20121;-77
2022/12/09 08:06:16;;;;;;;21.92;11.27;;;0.00;99.90;;;;;;5015184;28;20483;-76
2022/12/09 08:08:42;;;;;;;31.33;10.43;;;0.00;99.90;;;;;;5011021;28;20026;-76
2022/12/09 08:11:13;;;;;;;23.23;10.77;;;0.00;99.90;;;;;;5013145;28;20455;-75
2022/12/09 08:13:45;;;;;;;18.00;10.25;;;0.10;99.90;;;;;;5008519;28;20056;-76
2022/12/09 08:16:16;;;;;;;19.40;10.70;;;0.10;99.90;;;;;;5007847;28;20073;-76
2022/12/09 08:18:42;;;;;;;17.15;10.32;;;0.10;99.90;;;;;;5010255;28;20034;-75
2022/12/09 08:21:10;;;;;;;22.52;10.18;;;0.10;99.90;;;;;;5009412;28;20117;-75
2022/12/09 08:23:39;;;;;;;19.05;9.77;;;0.10;99.90;;;;;;5011490;28;20037;-76
2022/12/09 08:26:05;;;;;;;19.27;9.77;;;0.20;99.90;;;;;;5012001;28;20037;-75
2022/12/09 08:28:31;;;;;;;21.63;10.23;;;0.20;99.90;;;;;;5010463;28;20053;-76
2022/12/09 08:31:08;;;;;;;19.63;10.80;;;0.20;99.90;;;;;;5013445;28;20030;-76
2022/12/09 08:33:35;;;;;;;20.63;11.00;;;0.20;99.90;;;;;;5013248;28;20053;-76
2022/12/09 08:36:03;;;;;;;17.67;9.85;;;0.20;99.90;;;;;;5013829;28;20037;-75
2022/12/09 08:38:30;;;;;;;18.88;9.30;;;0.20;99.90;;;;;;5013915;28;20026;-75
2022/12/09 08:41:16;;;;;;;18.45;9.98;;;0.20;99.90;;;;;;5013388;28;20080;-75
2022/12/09 08:43:43;;;;;;;20.65;10.38;;;0.30;99.90;;;;;;5013308;28;20054;-75
2022/12/09 08:46:13;;;;;;;17.23;9.88;;;0.30;99.90;;;;;;5014751;28;20033;-76
2022/12/09 08:48:40;;;;;;;19.30;9.60;;;0.30;99.90;;;;;;5015009;28;20371;-75
2022/12/09 08:51:08;;;;;;;21.58;10.93;;;0.30;99.90;;;;;;5009342;28;20034;-75
2022/12/09 08:53:36;;;;;;;19.90;10.35;;;0.40;99.90;;;;;;5012180;28;20409;-75
2022/12/09 08:56:17;;;;;;;16.50;9.02;;;0.40;99.90;;;;;;5012834;28;20025;-76
2022/12/09 08:58:49;;;;;;;21.35;10.55;;;0.40;99.90;;;;;;5017075;28;20022;-75
2022/12/09 09:01:17;;;;;;;20.30;10.13;;;0.50;99.90;;;;;;5016339;28;20113;-76
2022/12/09 09:03:47;;;;;;;20.85;10.23;;;0.50;99.90;;;;;;5010817;28;20490;-76
2022/12/09 09:06:17;;;;;;;16.67;9.85;;;0.60;99.90;;;;;;5014575;28;20498;-75
2022/12/09 09:08:43;;;;;;;19.50;9.63;;;0.60;99.90;;;;;;5014107;28;20415;-76
2022/12/09 09:11:10;;;;;;;18.80;9.70;;;0.60;99.90;;;;;;5014011;28;20022;-75
2022/12/09 09:13:43;;;;;;;17.10;9.70;;;0.60;99.90;;;;;;5012359;28;20474;-75
2022/12/09 09:16:14;;;;;;;20.40;10.07;;;0.70;99.90;;;;;;5010764;28;20026;-75
2022/12/09 09:18:46;;;;;;;18.00;9.70;;;0.70;99.90;;;;;;5010525;28;20037;-75
2022/12/09 09:21:14;;;;;;;20.42;10.10;;;0.70;99.90;;;;;;5013973;28;20037;-75
2022/12/09 09:23:43;;;;;;;18.73;9.35;;;0.80;99.90;;;;;;5011741;28;20038;-75
2022/12/09 09:26:20;;;;;;;16.42;9.07;;;0.80;99.90;;;;;;5016549;28;20045;-75
2022/12/09 09:28:46;;;;;;;20.98;9.95;;;0.90;99.90;;;;;;5011187;28;20022;-75
2022/12/09 09:31:15;;;;;;;16.88;9.52;;;0.90;99.90;;;;;;5011282;28;20026;-76
2022/12/09 09:33:41;;;;;;;16.00;8.88;;;0.90;99.90;;;;;;5012848;28;20029;-75
2022/12/09 09:36:10;;;;;;;16.35;9.00;;;0.90;99.90;;;;;;5014223;28;20061;-75
2022/12/09 09:38:36;;;;;;;17.38;9.15;;;0.90;99.90;;;;;;5009694;28;20079;-75
2022/12/09 09:41:14;;;;;;;18.48;9.95;;;1.00;99.90;;;;;;5012753;28;20382;-76
2022/12/09 09:43:40;;;;;;;19.35;10.48;;;1.00;99.90;;;;;;5009870;28;20398;-75
2022/12/09 09:46:06;;;;;;;16.00;9.40;;;1.00;99.90;;;;;;5017700;28;20075;-76
2022/12/09 09:48:34;;;;;;;20.88;10.35;;;1.00;99.90;;;;;;5010861;28;20026;-76
2022/12/09 09:51:13;;;;;;;22.73;9.80;;;1.10;99.90;;;;;;5003482;28;20024;-76
2022/12/09 09:53:40;;;;;;;18.00;9.98;;;1.10;99.90;;;;;;5011789;28;20026;-75
2022/12/09 09:56:36;;;;;;;20.90;10.55;;;1.10;99.90;;;;;;5012268;28;20036;-74
2022/12/09 09:59:47;;;;;;;21.23;10.70;;;1.10;99.90;;;;;;5011012;28;20034;-75
2022/12/09 10:02:52;;;;;;;24.38;11.27;;;1.10;99.90;;;;;;4979690;28;20419;-75
2022/12/09 10:05:27;;;;;;;18.65;10.73;;;1.20;99.90;;;;;;5008517;28;20034;-75
2022/12/09 10:08:10;;;;;;;23.08;12.20;;;1.10;99.90;;;;;;5010657;28;20028;-74
2022/12/09 10:10:57;;;;;;;28.52;12.20;;;1.10;99.90;;;;;;5008064;28;20026;-74
2022/12/09 10:13:44;;;;;;;21.80;11.85;;;1.10;99.90;;;;;;5011303;28;20133;-74
2022/12/09 10:16:17;;;;;;;22.90;11.40;;;1.00;99.90;;;;;;5004065;28;20101;-74
2022/12/09 10:19:02;;;;;;;24.73;11.85;;;1.00;99.90;;;;;;5011963;28;20022;-74
2022/12/09 10:21:30;;;;;;;20.25;11.65;;;1.00;99.90;;;;;;5012326;28;20398;-74
2022/12/09 10:24:21;;;;;;;24.88;12.10;;;1.00;99.90;;;;;;5011484;28;20157;-74
2022/12/09 10:27:02;;;;;;;23.40;11.95;;;1.00;99.90;;;;;;5016593;28;20494;-74
2022/12/09 10:30:01;;;;;;;19.35;10.40;;;1.00;99.90;;;;;;5017019;28;20025;-74
2022/12/09 10:32:35;;;;;;;23.42;11.77;;;1.00;99.90;;;;;;5015075;28;20117;-74
2022/12/09 10:35:10;;;;;;;;;;;1.10;99.90;;;;;;5016232;28;20498;-74
2022/12/09 10:37:39;;;;;;;23.52;10.68;;;1.10;99.90;;;;;;5015583;28;20000;-74
2022/12/09 10:40:11;;;;;;;23.60;11.70;;;1.10;99.90;;;;;;5009116;28;20041;-75
2022/12/09 10:45:29;;;;;;;22.42;12.00;;;1.20;99.90;;;;;;5008739;28;20069;-74
2022/12/09 10:47:55;;;;;;;24.00;11.90;;;1.20;99.90;;;;;;5016612;28;20487;-75
2022/12/09 10:50:35;;;;;;;20.23;12.18;;;1.20;99.90;;;;;;5019033;28;20061;-74
2022/12/09 10:53:11;;;;;;;21.02;11.60;;;1.30;99.90;;;;;;5008561;28;20391;-75
2022/12/09 10:55:47;;;;;;;20.38;11.70;;;1.30;99.90;;;;;;5016564;28;20061;-74
2022/12/09 10:58:16;;;;;;;22.00;11.45;;;1.30;99.90;;;;;;5013476;28;20026;-75
2022/12/09 11:00:42;;;;;;;26.48;12.65;;;1.20;99.90;;;;;;5012365;28;20081;-75
2022/12/09 11:03:38;;;;;;;19.83;11.57;;;1.20;99.90;;;;;;5016735;23;20125;-78
2022/12/09 11:06:23;;;;;;;22.27;11.85;;;1.20;99.90;;;;;;5001226;28;20041;-79
2022/12/09 11:08:55;;;;;;;22.88;11.00;;;1.20;99.90;;;;;;5007756;28;20038;-78
2022/12/09 11:11:37;;;;;;;23.42;12.32;;;1.20;99.90;;;;;;5005413;28;20030;-78
2022/12/09 11:14:21;;;;;;;23.17;11.90;;;1.20;99.90;;;;;;5008394;28;20030;-78
2022/12/09 11:16:57;;;;;;;23.58;11.80;;;1.20;99.90;;;;;;5006884;28;20092;-77
2022/12/09 11:19:34;;;;;;;35.97;15.27;;;1.10;99.90;;;;;;5020058;23;20085;-72
2022/12/09 11:22:21;;;;;;;24.67;11.95;;;1.20;99.90;;;;;;5010622;28;20022;-73
2022/12/09 11:24:47;;;;;;;23.38;12.48;;;1.10;99.90;;;;;;4990194;28;20026;-72
2022/12/09 11:27:33;;;;;;;21.05;12.05;;;1.10;99.90;;;;;;4989027;28;20026;-73
2022/12/09 11:30:17;;;;;;;21.08;11.27;;;1.10;99.90;;;;;;4990263;28;20023;-72
2022/12/09 11:32:55;;;;;;;;;;;1.10;99.90;;;;;;4993102;28;20023;-72
2022/12/09 11:35:32;;;;;;;25.58;12.15;;;1.10;99.90;;;;;;5007547;28;20271;-72
2022/12/09 11:38:14;;;;;;;22.83;11.85;;;1.20;99.90;;;;;;4989512;28;20403;-73
2022/12/09 11:40:40;;;;;;;22.67;11.02;;;1.20;99.90;;;;;;4992049;28;20563;-72
2022/12/09 11:43:14;;;;;;;23.20;12.27;;;1.10;99.90;;;;;;4988415;28;20110;-73
2022/12/09 11:45:44;;;;;;;22.50;12.45;;;1.10;99.90;;;;;;4984913;28;20427;-72
2022/12/09 11:48:31;;;;;;;20.13;11.70;;;1.10;99.90;;;;;;4989719;28;21111;-72
2022/12/09 11:51:00;;;;;;;22.95;11.75;;;1.20;99.90;;;;;;4992464;28;20375;-74
2022/12/09 11:53:39;;;;;;;27.60;12.65;;;1.20;99.90;;;;;;4991724;28;20547;-73
2022/12/09 11:56:15;;;;;;;24.33;12.38;;;1.20;99.90;;;;;;4989401;28;20022;-73
2022/12/09 11:58:48;;;;;;;25.08;12.20;;;1.20;99.90;;;;;;5005899;28;20034;-73
2022/12/09 12:01:20;;;;;;;25.52;12.95;;;1.30;99.90;;;;;;4989227;28;20074;-73
2022/12/09 12:03:55;;;;;;;27.13;12.65;;;1.30;99.90;;;;;;4990721;28;20395;-72
2022/12/09 12:06:41;;;;;;;25.00;12.32;;;1.30;99.90;;;;;;4990026;28;20028;-73
2022/12/09 12:09:20;;;;;;;21.20;12.02;;;1.30;99.90;;;;;;4981225;28;20035;-73
2022/12/09 12:12:12;;;;;;;23.42;12.50;;;1.30;99.90;;;;;;4988591;28;20027;-73
2022/12/09 12:14:41;;;;;;;25.88;12.43;;;1.30;99.90;;;;;;4982666;28;20117;-72
2022/12/09 12:17:26;;;;;;;27.58;13.30;;;1.30;99.90;;;;;;4987567;28;20034;-74
2022/12/09 12:19:55;;;;;;;21.15;12.68;;;1.40;99.90;;;;;;4984539;28;20033;-73
2022/12/09 12:22:39;;;;;;;39.72;15.52;;;1.40;99.90;;;;;;4987942;28;20053;-73
2022/12/09 12:25:23;;;;;;;76.78;28.38;;;1.40;99.90;;;;;;4989234;28;20037;-73
2022/12/09 12:28:16;;;;;;;42.13;17.20;;;1.40;99.90;;;;;;4987557;28;20034;-73
2022/12/09 12:30:52;;;;;;;34.38;15.15;;;1.40;99.90;;;;;;4990629;28;20398;-73
2022/12/09 12:33:24;;;;;;;25.90;12.75;;;1.40;99.90;;;;;;4988645;28;20081;-73
2022/12/09 12:36:09;;;;;;;34.47;15.15;;;1.40;99.90;;;;;;4990504;28;20022;-73
2022/12/09 12:38:59;;;;;;;25.45;13.75;;;1.40;99.90;;;;;;4992399;28;20064;-73
2022/12/09 12:41:45;;;;;;;25.63;13.52;;;1.40;99.90;;;;;;4986959;28;20069;-73
2022/12/09 12:47:47;;;;;;;23.50;12.50;;;1.40;99.90;;;;;;4986829;28;20059;-73
2022/12/09 12:50:50;;;;;;;27.92;12.32;;;1.40;99.90;;;;;;5007277;28;20041;-73
2022/12/09 12:53:40;;;;;;;24.25;12.68;;;1.40;99.90;;;;;;4988444;28;20564;-73
2022/12/09 12:56:37;;;;;;;25.27;12.75;;;1.40;99.90;;;;;;4985636;28;20023;-73
2022/12/09 12:59:30;;;;;;;23.75;12.23;;;1.40;99.90;;;;;;4990887;28;20033;-71
2022/12/09 13:02:21;;;;;;;25.90;12.90;;;1.40;99.90;;;;;;4991632;28;20026;-73
2022/12/09 13:05:16;;;;;;;28.70;12.98;;;1.40;99.90;;;;;;4967551;28;20039;-72
2022/12/09 13:07:58;;;;;;;25.60;13.23;;;1.40;99.90;;;;;;4988469;28;20022;-72
2022/12/09 13:10:44;;;;;;;27.85;12.98;;;1.40;99.90;;;;;;4981662;28;20077;-73
2022/12/09 13:13:24;;;;;;;26.38;13.75;;;1.40;99.90;;;;;;4983926;28;20405;-73